sensor_id;sensor_type;location;lat;lon;timestamp;temperature;humidity
8892;DHT22;4482;54.332;10.118;2023-02-28T00:01:11;4.90;99.90
8892;DHT22;4482;54.332;10.118;2023-02-28T00:03:38;4.90;99.90
8892;DHT22;4482;54.332;10.118;2023-02-28T00:06:05;4.90;99.90
8892;DHT22;4482;54.332;10.118;2023-02-28T00:08:32;4.80;99.90
8892;DHT22;4482;54.332;10.118;2023-02-28T00:11:00;4.80;99.90
8892;DHT22;4482;54.332;10.118;2023-02-28T00:13:27;4.80;99.90
8892;DHT22;4482;54.332;10.118;2023-02-28T00:16:01;4.80;99.90
8892;DHT22;4482;54.332;10.118;2023-02-28T00:18:29;4.70;99.90
8892;DHT22;4482;54.332;10.118;2023-02-28T00:20:56;4.60;99.90
8892;DHT22;4482;54.332;10.118;2023-02-28T00:23:22;4.50;99.90
8892;DHT22;4482;54.332;10.118;2023-02-28T00:25:49;4.50;99.90
8892;DHT22;4482;54.332;10.118;2023-02-28T00:28:16;4.40;99.90
8892;DHT22;4482;54.332;10.118;2023-02-28T00:30:43;4.40;99.90
8892;DHT22;4482;54.332;10.118;2023-02-28T00:33:11;4.30;99.90
8892;DHT22;4482;54.332;10.118;2023-02-28T00:35:38;4.30;99.90
8892;DHT22;4482;54.332;10.118;2023-02-28T00:38:05;4.30;99.90
8892;DHT22;4482;54.332;10.118;2023-02-28T00:40:31;4.30;99.90
8892;DHT22;4482;54.332;10.118;2023-02-28T00:42:58;4.30;99.90
8892;DHT22;4482;54.332;10.118;2023-02-28T00:45:25;4.30;99.90
8892;DHT22;4482;54.332;10.118;2023-02-28T00:47:51;4.30;99.90
8892;DHT22;4482;54.332;10.118;2023-02-28T00:50:20;4.40;99.90
8892;DHT22;4482;54.332;10.118;2023-02-28T00:52:46;4.40;99.90
8892;DHT22;4482;54.332;10.118;2023-02-28T00:55:13;4.40;99.90
8892;DHT22;4482;54.332;10.118;2023-02-28T00:57:40;4.50;99.90
8892;DHT22;4482;54.332;10.118;2023-02-28T01:00:08;4.50;99.90
8892;DHT22;4482;54.332;10.118;2023-02-28T01:02:35;4.60;99.90
8892;DHT22;4482;54.332;10.118;2023-02-28T01:05:01;4.50;99.90
8892;DHT22;4482;54.332;10.118;2023-02-28T01:07:29;4.50;99.90
8892;DHT22;4482;54.332;10.118;2023-02-28T01:09:56;4.50;99.90
8892;DHT22;4482;54.332;10.118;2023-02-28T01:12:23;4.50;99.90
8892;DHT22;4482;54.332;10.118;2023-02-28T01:14:50;4.50;99.90
8892;DHT22;4482;54.332;10.118;2023-02-28T01:17:16;4.50;99.90
8892;DHT22;4482;54.332;10.118;2023-02-28T01:19:43;4.50;99.90
8892;DHT22;4482;54.332;10.118;2023-02-28T01:22:09;4.50;99.90
8892;DHT22;4482;54.332;10.118;2023-02-28T01:24:38;4.50;99.90
8892;DHT22;4482;54.332;10.118;2023-02-28T01:27:04;4.50;99.90
8892;DHT22;4482;54.332;10.118;2023-02-28T01:29:31;4.40;99.90
8892;DHT22;4482;54.332;10.118;2023-02-28T01:31:58;4.40;99.90
8892;DHT22;4482;54.332;10.118;2023-02-28T01:34:25;4.40;99.90
8892;DHT22;4482;54.332;10.118;2023-02-28T01:36:52;4.40;99.90
8892;DHT22;4482;54.332;10.118;2023-02-28T01:39:18;4.40;99.90
8892;DHT22;4482;54.332;10.118;2023-02-28T01:41:46;4.40;99.90
8892;DHT22;4482;54.332;10.118;2023-02-28T01:46:58;4.40;99.90
8892;DHT22;4482;54.332;10.118;2023-02-28T01:49:25;4.40;99.90
8892;DHT22;4482;54.332;10.118;2023-02-28T01:51:53;4.30;99.90
8892;DHT22;4482;54.332;10.118;2023-02-28T01:54:22;4.30;99.90
8892;DHT22;4482;54.332;10.118;2023-02-28T01:56:53;4.30;99.90
8892;DHT22;4482;54.332;10.118;2023-02-28T01:59:21;4.30;99.90
8892;DHT22;4482;54.332;10.118;2023-02-28T02:01:48;4.30;99.90
8892;DHT22;4482;54.332;10.118;2023-02-28T02:04:15;4.20;99.90
8892;DHT22;4482;54.332;10.118;2023-02-28T02:06:43;4.10;99.90
8892;DHT22;4482;54.332;10.118;2023-02-28T02:09:10;4.00;99.90
8892;DHT22;4482;54.332;10.118;2023-02-28T02:11:37;4.00;99.90
8892;DHT22;4482;54.332;10.118;2023-02-28T02:16:59;4.00;99.90
8892;DHT22;4482;54.332;10.118;2023-02-28T02:22:20;4.00;99.90
8892;DHT22;4482;54.332;10.118;2023-02-28T02:24:53;4.00;99.90
8892;DHT22;4482;54.332;10.118;2023-02-28T02:27:25;4.00;99.90
8892;DHT22;4482;54.332;10.118;2023-02-28T02:30:00;3.90;99.90
8892;DHT22;4482;54.332;10.118;2023-02-28T02:32:54;3.90;99.90
8892;DHT22;4482;54.332;10.118;2023-02-28T02:35:30;3.90;99.90
8892;DHT22;4482;54.332;10.118;2023-02-28T02:38:01;3.90;99.90
8892;DHT22;4482;54.332;10.118;2023-02-28T02:40:32;3.90;99.90
8892;DHT22;4482;54.332;10.118;2023-02-28T02:43:02;3.90;99.90
8892;DHT22;4482;54.332;10.118;2023-02-28T02:45:31;3.80;99.90
8892;DHT22;4482;54.332;10.118;2023-02-28T02:48:01;3.80;99.90
8892;DHT22;4482;54.332;10.118;2023-02-28T02:50:29;3.70;99.90
8892;DHT22;4482;54.332;10.118;2023-02-28T02:52:58;3.70;99.90
8892;DHT22;4482;54.332;10.118;2023-02-28T02:55:27;3.70;99.90
8892;DHT22;4482;54.332;10.118;2023-02-28T02:57:54;3.70;99.90
8892;DHT22;4482;54.332;10.118;2023-02-28T03:00:23;3.70;99.90
8892;DHT22;4482;54.332;10.118;2023-02-28T03:02:52;3.80;99.90
8892;DHT22;4482;54.332;10.118;2023-02-28T03:05:20;3.70;99.90
8892;DHT22;4482;54.332;10.118;2023-02-28T03:07:47;3.70;99.90
8892;DHT22;4482;54.332;10.118;2023-02-28T03:10:32;3.70;99.90
8892;DHT22;4482;54.332;10.118;2023-02-28T03:15:47;3.70;99.90
8892;DHT22;4482;54.332;10.118;2023-02-28T03:18:16;3.60;99.90
8892;DHT22;4482;54.332;10.118;2023-02-28T03:20:48;3.60;99.90
8892;DHT22;4482;54.332;10.118;2023-02-28T03:23:19;3.50;99.90
8892;DHT22;4482;54.332;10.118;2023-02-28T03:25:54;3.50;99.90
8892;DHT22;4482;54.332;10.118;2023-02-28T03:28:27;3.40;99.90
8892;DHT22;4482;54.332;10.118;2023-02-28T03:30:58;3.40;99.90
8892;DHT22;4482;54.332;10.118;2023-02-28T03:33:26;3.40;99.90
8892;DHT22;4482;54.332;10.118;2023-02-28T03:35:56;3.30;99.90
8892;DHT22;4482;54.332;10.118;2023-02-28T03:38:26;3.30;99.90
8892;DHT22;4482;54.332;10.118;2023-02-28T03:40:57;3.20;99.90
8892;DHT22;4482;54.332;10.118;2023-02-28T03:43:26;3.20;99.90
8892;DHT22;4482;54.332;10.118;2023-02-28T03:45:54;3.20;99.90
8892;DHT22;4482;54.332;10.118;2023-02-28T03:48:23;3.10;99.90
8892;DHT22;4482;54.332;10.118;2023-02-28T03:50:51;3.10;99.90
8892;DHT22;4482;54.332;10.118;2023-02-28T03:53:21;3.10;99.90
8892;DHT22;4482;54.332;10.118;2023-02-28T03:55:49;3.10;99.90
8892;DHT22;4482;54.332;10.118;2023-02-28T03:58:20;3.10;99.90
8892;DHT22;4482;54.332;10.118;2023-02-28T04:00:51;3.10;99.90
8892;DHT22;4482;54.332;10.118;2023-02-28T04:03:19;3.10;99.90
8892;DHT22;4482;54.332;10.118;2023-02-28T04:05:46;3.10;99.90
8892;DHT22;4482;54.332;10.118;2023-02-28T04:08:14;3.10;99.90
8892;DHT22;4482;54.332;10.118;2023-02-28T04:10:40;3.10;99.90
8892;DHT22;4482;54.332;10.118;2023-02-28T04:13:08;3.10;99.90
8892;DHT22;4482;54.332;10.118;2023-02-28T04:15:36;3.00;99.90
8892;DHT22;4482;54.332;10.118;2023-02-28T04:18:03;3.10;99.90
8892;DHT22;4482;54.332;10.118;2023-02-28T04:20:30;3.00;99.90
8892;DHT22;4482;54.332;10.118;2023-02-28T04:22:56;3.00;99.90
8892;DHT22;4482;54.332;10.118;2023-02-28T04:25:23;3.00;99.90
8892;DHT22;4482;54.332;10.118;2023-02-28T04:27:49;3.00;99.90
8892;DHT22;4482;54.332;10.118;2023-02-28T04:30:16;3.00;99.90
8892;DHT22;4482;54.332;10.118;2023-02-28T04:32:44;3.00;99.90
8892;DHT22;4482;54.332;10.118;2023-02-28T04:35:11;2.90;99.90
8892;DHT22;4482;54.332;10.118;2023-02-28T04:37:37;2.90;99.90
8892;DHT22;4482;54.332;10.118;2023-02-28T04:40:04;3.00;99.90
8892;DHT22;4482;54.332;10.118;2023-02-28T04:42:31;2.90;99.90
8892;DHT22;4482;54.332;10.118;2023-02-28T04:45:01;2.90;99.90
8892;DHT22;4482;54.332;10.118;2023-02-28T04:47:28;2.90;99.90
8892;DHT22;4482;54.332;10.118;2023-02-28T04:49:56;2.80;99.90
8892;DHT22;4482;54.332;10.118;2023-02-28T04:52:22;2.80;99.90
8892;DHT22;4482;54.332;10.118;2023-02-28T04:54:49;2.80;99.90
8892;DHT22;4482;54.332;10.118;2023-02-28T04:57:16;2.70;99.90
8892;DHT22;4482;54.332;10.118;2023-02-28T04:59:42;2.70;99.90
8892;DHT22;4482;54.332;10.118;2023-02-28T05:02:09;2.60;99.90
8892;DHT22;4482;54.332;10.118;2023-02-28T05:04:36;2.60;99.90
8892;DHT22;4482;54.332;10.118;2023-02-28T05:07:04;2.50;99.90
8892;DHT22;4482;54.332;10.118;2023-02-28T05:09:30;2.50;99.90
8892;DHT22;4482;54.332;10.118;2023-02-28T05:11:58;2.50;99.90
8892;DHT22;4482;54.332;10.118;2023-02-28T05:14:24;2.50;99.90
8892;DHT22;4482;54.332;10.118;2023-02-28T05:16:51;2.50;99.90
8892;DHT22;4482;54.332;10.118;2023-02-28T05:19:18;2.50;99.90
8892;DHT22;4482;54.332;10.118;2023-02-28T05:21:49;2.50;99.90
8892;DHT22;4482;54.332;10.118;2023-02-28T05:24:18;2.50;99.90
8892;DHT22;4482;54.332;10.118;2023-02-28T05:26:48;2.50;99.90
8892;DHT22;4482;54.332;10.118;2023-02-28T05:29:16;2.50;99.90
8892;DHT22;4482;54.332;10.118;2023-02-28T05:31:42;2.50;99.90
8892;DHT22;4482;54.332;10.118;2023-02-28T05:34:09;2.50;99.90
8892;DHT22;4482;54.332;10.118;2023-02-28T05:36:37;2.50;99.90
8892;DHT22;4482;54.332;10.118;2023-02-28T05:39:04;2.50;99.90
8892;DHT22;4482;54.332;10.118;2023-02-28T05:41:33;2.50;99.90
8892;DHT22;4482;54.332;10.118;2023-02-28T05:43:59;2.50;99.90
8892;DHT22;4482;54.332;10.118;2023-02-28T05:46:26;2.50;99.90
8892;DHT22;4482;54.332;10.118;2023-02-28T05:48:53;2.60;99.90
8892;DHT22;4482;54.332;10.118;2023-02-28T05:51:21;3.00;99.90
8892;DHT22;4482;54.332;10.118;2023-02-28T05:53:47;2.90;99.90
8892;DHT22;4482;54.332;10.118;2023-02-28T05:56:14;2.80;99.90
8892;DHT22;4482;54.332;10.118;2023-02-28T05:58:42;2.70;99.90
8892;DHT22;4482;54.332;10.118;2023-02-28T06:01:19;2.60;99.90
8892;DHT22;4482;54.332;10.118;2023-02-28T06:03:46;2.50;99.90
8892;DHT22;4482;54.332;10.118;2023-02-28T06:06:13;2.50;99.90
8892;DHT22;4482;54.332;10.118;2023-02-28T06:08:40;2.40;99.90
8892;DHT22;4482;54.332;10.118;2023-02-28T06:11:08;2.40;99.90
8892;DHT22;4482;54.332;10.118;2023-02-28T06:13:35;2.40;99.90
8892;DHT22;4482;54.332;10.118;2023-02-28T06:16:04;2.40;99.90
8892;DHT22;4482;54.332;10.118;2023-02-28T06:18:30;2.40;99.90
8892;DHT22;4482;54.332;10.118;2023-02-28T06:20:57;2.30;99.90
8892;DHT22;4482;54.332;10.118;2023-02-28T06:23:24;2.30;99.90
8892;DHT22;4482;54.332;10.118;2023-02-28T06:25:50;2.30;99.90
8892;DHT22;4482;54.332;10.118;2023-02-28T06:28:18;2.40;99.90
8892;DHT22;4482;54.332;10.118;2023-02-28T06:30:45;2.40;99.90
8892;DHT22;4482;54.332;10.118;2023-02-28T06:33:13;2.40;99.90
8892;DHT22;4482;54.332;10.118;2023-02-28T06:35:39;2.80;99.90
8892;DHT22;4482;54.332;10.118;2023-02-28T06:38:09;3.00;99.90
8892;DHT22;4482;54.332;10.118;2023-02-28T06:40:36;2.90;99.90
8892;DHT22;4482;54.332;10.118;2023-02-28T06:43:02;2.70;99.90
8892;DHT22;4482;54.332;10.118;2023-02-28T06:45:29;2.70;99.90
8892;DHT22;4482;54.332;10.118;2023-02-28T06:47:56;2.60;99.90
8892;DHT22;4482;54.332;10.118;2023-02-28T06:50:24;2.60;99.90
8892;DHT22;4482;54.332;10.118;2023-02-28T06:52:52;2.60;99.90
8892;DHT22;4482;54.332;10.118;2023-02-28T06:55:21;2.60;99.90
8892;DHT22;4482;54.332;10.118;2023-02-28T06:57:48;2.70;99.90
8892;DHT22;4482;54.332;10.118;2023-02-28T07:00:16;2.70;99.90
8892;DHT22;4482;54.332;10.118;2023-02-28T07:02:42;2.70;99.90
8892;DHT22;4482;54.332;10.118;2023-02-28T07:05:09;3.10;99.90
8892;DHT22;4482;54.332;10.118;2023-02-28T07:07:37;3.20;99.90
8892;DHT22;4482;54.332;10.118;2023-02-28T07:10:06;3.10;99.90
8892;DHT22;4482;54.332;10.118;2023-02-28T07:12:32;3.10;99.90
8892;DHT22;4482;54.332;10.118;2023-02-28T07:14:59;3.10;99.90
8892;DHT22;4482;54.332;10.118;2023-02-28T07:17:26;3.10;99.90
8892;DHT22;4482;54.332;10.118;2023-02-28T07:19:52;3.10;99.90
8892;DHT22;4482;54.332;10.118;2023-02-28T07:22:19;3.10;99.90
8892;DHT22;4482;54.332;10.118;2023-02-28T07:24:47;3.10;99.90
8892;DHT22;4482;54.332;10.118;2023-02-28T07:27:14;3.20;99.90
8892;DHT22;4482;54.332;10.118;2023-02-28T07:29:48;3.20;99.90
8892;DHT22;4482;54.332;10.118;2023-02-28T07:32:15;3.20;99.90
8892;DHT22;4482;54.332;10.118;2023-02-28T07:34:42;3.30;99.90
8892;DHT22;4482;54.332;10.118;2023-02-28T07:37:08;3.30;99.90
8892;DHT22;4482;54.332;10.118;2023-02-28T07:39:35;3.40;99.90
8892;DHT22;4482;54.332;10.118;2023-02-28T07:42:05;3.40;99.90
8892;DHT22;4482;54.332;10.118;2023-02-28T07:44:34;3.50;99.90
8892;DHT22;4482;54.332;10.118;2023-02-28T07:47:05;3.60;99.90
8892;DHT22;4482;54.332;10.118;2023-02-28T07:49:32;3.60;99.90
8892;DHT22;4482;54.332;10.118;2023-02-28T07:51:59;3.70;99.90
8892;DHT22;4482;54.332;10.118;2023-02-28T07:54:25;3.70;99.90
8892;DHT22;4482;54.332;10.118;2023-02-28T07:56:52;3.70;99.90
8892;DHT22;4482;54.332;10.118;2023-02-28T07:59:20;3.70;99.90
8892;DHT22;4482;54.332;10.118;2023-02-28T08:01:47;3.80;99.90
8892;DHT22;4482;54.332;10.118;2023-02-28T08:04:15;3.90;99.90
8892;DHT22;4482;54.332;10.118;2023-02-28T08:06:42;3.90;99.90
8892;DHT22;4482;54.332;10.118;2023-02-28T08:09:08;3.90;99.90
8892;DHT22;4482;54.332;10.118;2023-02-28T08:11:35;4.00;99.90
8892;DHT22;4482;54.332;10.118;2023-02-28T08:14:02;4.10;99.90
8892;DHT22;4482;54.332;10.118;2023-02-28T08:16:30;4.10;99.90
8892;DHT22;4482;54.332;10.118;2023-02-28T08:18:57;4.10;99.90
8892;DHT22;4482;54.332;10.118;2023-02-28T08:21:24;4.20;99.90
8892;DHT22;4482;54.332;10.118;2023-02-28T08:23:50;4.30;99.90
8892;DHT22;4482;54.332;10.118;2023-02-28T08:26:17;4.40;99.90
8892;DHT22;4482;54.332;10.118;2023-02-28T08:28:44;4.40;99.90
8892;DHT22;4482;54.332;10.118;2023-02-28T08:31:12;4.50;99.90
8892;DHT22;4482;54.332;10.118;2023-02-28T08:33:41;4.60;99.90
8892;DHT22;4482;54.332;10.118;2023-02-28T08:36:10;4.60;99.90
8892;DHT22;4482;54.332;10.118;2023-02-28T08:38:37;4.70;99.90
8892;DHT22;4482;54.332;10.118;2023-02-28T08:41:04;4.70;99.90
8892;DHT22;4482;54.332;10.118;2023-02-28T08:43:32;4.80;99.90
8892;DHT22;4482;54.332;10.118;2023-02-28T08:45:59;4.80;99.90
8892;DHT22;4482;54.332;10.118;2023-02-28T08:48:27;4.80;99.90
8892;DHT22;4482;54.332;10.118;2023-02-28T08:50:56;4.90;99.90
8892;DHT22;4482;54.332;10.118;2023-02-28T08:53:23;4.90;99.90
8892;DHT22;4482;54.332;10.118;2023-02-28T08:55:55;5.00;99.90
8892;DHT22;4482;54.332;10.118;2023-02-28T08:58:22;5.10;99.90
8892;DHT22;4482;54.332;10.118;2023-02-28T09:00:49;5.10;99.90
8892;DHT22;4482;54.332;10.118;2023-02-28T09:03:16;5.20;99.90
8892;DHT22;4482;54.332;10.118;2023-02-28T09:05:51;5.20;99.90
8892;DHT22;4482;54.332;10.118;2023-02-28T09:08:19;5.20;99.90
8892;DHT22;4482;54.332;10.118;2023-02-28T09:10:45;5.30;99.90
8892;DHT22;4482;54.332;10.118;2023-02-28T09:13:12;5.30;99.90
8892;DHT22;4482;54.332;10.118;2023-02-28T09:15:39;5.40;99.90
8892;DHT22;4482;54.332;10.118;2023-02-28T09:18:05;5.40;99.90
8892;DHT22;4482;54.332;10.118;2023-02-28T09:20:32;5.40;99.90
8892;DHT22;4482;54.332;10.118;2023-02-28T09:22:59;5.50;99.90
8892;DHT22;4482;54.332;10.118;2023-02-28T09:25:27;5.50;99.90
8892;DHT22;4482;54.332;10.118;2023-02-28T09:27:53;5.60;99.90
8892;DHT22;4482;54.332;10.118;2023-02-28T09:30:20;5.60;99.90
8892;DHT22;4482;54.332;10.118;2023-02-28T09:32:47;5.70;99.90
8892;DHT22;4482;54.332;10.118;2023-02-28T09:35:17;5.70;99.90
8892;DHT22;4482;54.332;10.118;2023-02-28T09:38:02;5.70;99.90
8892;DHT22;4482;54.332;10.118;2023-02-28T09:40:53;5.80;99.90
8892;DHT22;4482;54.332;10.118;2023-02-28T09:43:22;5.80;99.90
8892;DHT22;4482;54.332;10.118;2023-02-28T09:45:51;5.90;99.90
8892;DHT22;4482;54.332;10.118;2023-02-28T09:48:25;6.00;99.90
8892;DHT22;4482;54.332;10.118;2023-02-28T09:50:55;6.00;99.90
8892;DHT22;4482;54.332;10.118;2023-02-28T09:53:26;6.00;99.90
8892;DHT22;4482;54.332;10.118;2023-02-28T09:56:01;6.10;99.90
8892;DHT22;4482;54.332;10.118;2023-02-28T09:58:31;6.00;99.90
8892;DHT22;4482;54.332;10.118;2023-02-28T10:00:59;6.10;99.90
8892;DHT22;4482;54.332;10.118;2023-02-28T10:03:29;6.20;99.90
8892;DHT22;4482;54.332;10.118;2023-02-28T10:05:57;6.20;99.90
8892;DHT22;4482;54.332;10.118;2023-02-28T10:08:26;6.30;99.90
8892;DHT22;4482;54.332;10.118;2023-02-28T10:10:54;6.30;99.90
8892;DHT22;4482;54.332;10.118;2023-02-28T10:13:25;6.30;99.90
8892;DHT22;4482;54.332;10.118;2023-02-28T10:15:54;6.30;99.90
8892;DHT22;4482;54.332;10.118;2023-02-28T10:18:23;6.30;99.90
8892;DHT22;4482;54.332;10.118;2023-02-28T10:20:51;6.40;99.90
8892;DHT22;4482;54.332;10.118;2023-02-28T10:23:19;6.40;99.90
8892;DHT22;4482;54.332;10.118;2023-02-28T10:25:48;6.50;99.90
8892;DHT22;4482;54.332;10.118;2023-02-28T10:28:16;6.60;99.90
8892;DHT22;4482;54.332;10.118;2023-02-28T10:30:46;6.60;99.90
8892;DHT22;4482;54.332;10.118;2023-02-28T10:33:16;6.60;99.90
8892;DHT22;4482;54.332;10.118;2023-02-28T10:35:44;6.60;99.90
8892;DHT22;4482;54.332;10.118;2023-02-28T10:38:15;6.70;99.90
8892;DHT22;4482;54.332;10.118;2023-02-28T10:40:42;6.70;99.90
8892;DHT22;4482;54.332;10.118;2023-02-28T10:43:17;6.70;99.90
8892;DHT22;4482;54.332;10.118;2023-02-28T10:45:53;6.70;99.90
8892;DHT22;4482;54.332;10.118;2023-02-28T10:48:29;6.70;99.90
8892;DHT22;4482;54.332;10.118;2023-02-28T10:50:56;6.70;99.90
8892;DHT22;4482;54.332;10.118;2023-02-28T10:53:27;6.70;99.90
8892;DHT22;4482;54.332;10.118;2023-02-28T10:55:58;6.80;99.90
8892;DHT22;4482;54.332;10.118;2023-02-28T10:58:27;6.80;99.90
8892;DHT22;4482;54.332;10.118;2023-02-28T11:00:55;6.90;99.90
8892;DHT22;4482;54.332;10.118;2023-02-28T11:03:23;6.90;99.90
8892;DHT22;4482;54.332;10.118;2023-02-28T11:05:50;7.00;99.90
8892;DHT22;4482;54.332;10.118;2023-02-28T11:08:18;7.10;99.90
8892;DHT22;4482;54.332;10.118;2023-02-28T11:10:45;7.10;99.90
8892;DHT22;4482;54.332;10.118;2023-02-28T11:13:19;7.10;99.90
8892;DHT22;4482;54.332;10.118;2023-02-28T11:15:50;7.10;99.90
8892;DHT22;4482;54.332;10.118;2023-02-28T11:18:23;7.00;99.90
8892;DHT22;4482;54.332;10.118;2023-02-28T11:20:51;6.90;99.90
8892;DHT22;4482;54.332;10.118;2023-02-28T11:23:18;6.90;99.90
8892;DHT22;4482;54.332;10.118;2023-02-28T11:25:46;6.90;99.90
8892;DHT22;4482;54.332;10.118;2023-02-28T11:28:23;6.90;99.90
8892;DHT22;4482;54.332;10.118;2023-02-28T11:31:00;6.90;99.90
8892;DHT22;4482;54.332;10.118;2023-02-28T11:33:28;6.90;99.90
8892;DHT22;4482;54.332;10.118;2023-02-28T11:35:56;7.00;99.90
8892;DHT22;4482;54.332;10.118;2023-02-28T11:38:23;7.00;99.90
8892;DHT22;4482;54.332;10.118;2023-02-28T11:40:53;6.90;99.90
8892;DHT22;4482;54.332;10.118;2023-02-28T11:43:26;6.90;99.90
8892;DHT22;4482;54.332;10.118;2023-02-28T11:46:03;6.90;99.90
8892;DHT22;4482;54.332;10.118;2023-02-28T11:48:35;6.90;99.90
8892;DHT22;4482;54.332;10.118;2023-02-28T11:51:10;7.00;99.90
8892;DHT22;4482;54.332;10.118;2023-02-28T11:53:42;7.00;99.90
8892;DHT22;4482;54.332;10.118;2023-02-28T11:56:11;6.90;99.90
8892;DHT22;4482;54.332;10.118;2023-02-28T11:58:44;6.90;99.90
8892;DHT22;4482;54.332;10.118;2023-02-28T12:01:16;6.90;99.90
8892;DHT22;4482;54.332;10.118;2023-02-28T12:03:49;6.90;99.90
8892;DHT22;4482;54.332;10.118;2023-02-28T12:06:22;6.90;99.90
8892;DHT22;4482;54.332;10.118;2023-02-28T12:09:02;7.00;99.90
8892;DHT22;4482;54.332;10.118;2023-02-28T12:11:36;7.10;99.90
8892;DHT22;4482;54.332;10.118;2023-02-28T12:14:14;7.10;99.90
8892;DHT22;4482;54.332;10.118;2023-02-28T12:16:51;7.10;99.90
8892;DHT22;4482;54.332;10.118;2023-02-28T12:19:24;7.20;99.90
8892;DHT22;4482;54.332;10.118;2023-02-28T12:22:00;7.20;99.90
8892;DHT22;4482;54.332;10.118;2023-02-28T12:24:38;7.10;99.90
8892;DHT22;4482;54.332;10.118;2023-02-28T12:27:05;7.10;99.90
8892;DHT22;4482;54.332;10.118;2023-02-28T12:29:34;7.10;99.90
8892;DHT22;4482;54.332;10.118;2023-02-28T12:32:05;7.10;99.90
8892;DHT22;4482;54.332;10.118;2023-02-28T12:34:35;7.10;99.90
8892;DHT22;4482;54.332;10.118;2023-02-28T12:37:03;7.10;99.90
8892;DHT22;4482;54.332;10.118;2023-02-28T12:39:33;7.10;99.90
8892;DHT22;4482;54.332;10.118;2023-02-28T12:42:03;7.20;99.90
8892;DHT22;4482;54.332;10.118;2023-02-28T12:44:34;7.20;99.90
8892;DHT22;4482;54.332;10.118;2023-02-28T12:47:02;7.30;99.90
8892;DHT22;4482;54.332;10.118;2023-02-28T12:49:31;7.40;99.90
8892;DHT22;4482;54.332;10.118;2023-02-28T12:52:00;7.40;99.90
8892;DHT22;4482;54.332;10.118;2023-02-28T12:54:28;7.40;99.90
8892;DHT22;4482;54.332;10.118;2023-02-28T12:56:57;7.40;99.90
8892;DHT22;4482;54.332;10.118;2023-02-28T12:59:31;7.40;99.90
8892;DHT22;4482;54.332;10.118;2023-02-28T13:04:53;7.40;99.90
8892;DHT22;4482;54.332;10.118;2023-02-28T13:07:38;7.40;99.90
8892;DHT22;4482;54.332;10.118;2023-02-28T13:10:07;7.40;99.90
8892;DHT22;4482;54.332;10.118;2023-02-28T13:12:35;7.40;99.90
8892;DHT22;4482;54.332;10.118;2023-02-28T13:15:04;7.40;99.90
8892;DHT22;4482;54.332;10.118;2023-02-28T13:17:31;7.40;99.90
8892;DHT22;4482;54.332;10.118;2023-02-28T13:19:59;7.40;99.90
8892;DHT22;4482;54.332;10.118;2023-02-28T13:22:38;7.40;99.90
8892;DHT22;4482;54.332;10.118;2023-02-28T13:27:46;7.50;99.90
8892;DHT22;4482;54.332;10.118;2023-02-28T13:35:46;7.50;99.90
8892;DHT22;4482;54.332;10.118;2023-02-28T13:46:22;7.60;99.90
8892;DHT22;4482;54.332;10.118;2023-02-28T13:48:49;7.50;99.90
8892;DHT22;4482;54.332;10.118;2023-02-28T13:51:35;7.50;99.90
8892;DHT22;4482;54.332;10.118;2023-02-28T13:54:10;7.50;99.90
8892;DHT22;4482;54.332;10.118;2023-02-28T13:56:42;7.60;99.90
8892;DHT22;4482;54.332;10.118;2023-02-28T13:59:17;7.60;99.90
8892;DHT22;4482;54.332;10.118;2023-02-28T14:01:53;7.70;99.90
8892;DHT22;4482;54.332;10.118;2023-02-28T14:07:15;7.70;99.90
8892;DHT22;4482;54.332;10.118;2023-02-28T14:09:45;7.60;99.90
8892;DHT22;4482;54.332;10.118;2023-02-28T14:14:58;7.50;99.90
8892;DHT22;4482;54.332;10.118;2023-02-28T14:17:26;7.50;99.90
8892;DHT22;4482;54.332;10.118;2023-02-28T14:19:53;7.50;99.90
8892;DHT22;4482;54.332;10.118;2023-02-28T14:22:26;7.50;99.90
8892;DHT22;4482;54.332;10.118;2023-02-28T14:25:08;7.60;99.90
8892;DHT22;4482;54.332;10.118;2023-02-28T14:27:38;7.50;99.90
8892;DHT22;4482;54.332;10.118;2023-02-28T14:30:15;7.50;99.90
8892;DHT22;4482;54.332;10.118;2023-02-28T14:32:49;7.50;99.90
8892;DHT22;4482;54.332;10.118;2023-02-28T14:35:26;7.50;99.90
8892;DHT22;4482;54.332;10.118;2023-02-28T14:37:55;7.50;99.90
8892;DHT22;4482;54.332;10.118;2023-02-28T14:40:23;7.50;99.90
8892;DHT22;4482;54.332;10.118;2023-02-28T14:42:54;7.50;99.90
8892;DHT22;4482;54.332;10.118;2023-02-28T14:45:21;7.50;99.90
8892;DHT22;4482;54.332;10.118;2023-02-28T14:47:50;7.50;99.90
8892;DHT22;4482;54.332;10.118;2023-02-28T14:50:18;7.40;99.90
8892;DHT22;4482;54.332;10.118;2023-02-28T14:52:45;7.40;99.90
8892;DHT22;4482;54.332;10.118;2023-02-28T14:55:12;7.40;99.90
8892;DHT22;4482;54.332;10.118;2023-02-28T14:57:41;7.40;99.90
8892;DHT22;4482;54.332;10.118;2023-02-28T15:00:12;7.50;99.90
8892;DHT22;4482;54.332;10.118;2023-02-28T15:02:39;7.50;99.90
8892;DHT22;4482;54.332;10.118;2023-02-28T15:05:23;7.40;99.90
8892;DHT22;4482;54.332;10.118;2023-02-28T15:08:03;7.40;99.90
8892;DHT22;4482;54.332;10.118;2023-02-28T15:10:30;7.40;99.90
8892;DHT22;4482;54.332;10.118;2023-02-28T15:12:57;7.40;99.90
8892;DHT22;4482;54.332;10.118;2023-02-28T15:15:25;7.40;99.90
8892;DHT22;4482;54.332;10.118;2023-02-28T15:17:53;7.40;99.90
8892;DHT22;4482;54.332;10.118;2023-02-28T15:20:24;7.40;99.90
8892;DHT22;4482;54.332;10.118;2023-02-28T15:22:52;7.50;99.90
8892;DHT22;4482;54.332;10.118;2023-02-28T15:25:21;7.50;99.90
8892;DHT22;4482;54.332;10.118;2023-02-28T15:27:49;7.50;99.90
8892;DHT22;4482;54.332;10.118;2023-02-28T15:30:17;7.50;99.90
8892;DHT22;4482;54.332;10.118;2023-02-28T15:32:45;7.60;99.90
8892;DHT22;4482;54.332;10.118;2023-02-28T15:35:29;7.60;99.90
8892;DHT22;4482;54.332;10.118;2023-02-28T15:37:57;7.50;99.90
8892;DHT22;4482;54.332;10.118;2023-02-28T15:40:27;7.50;99.90
8892;DHT22;4482;54.332;10.118;2023-02-28T15:43:03;7.40;99.90
8892;DHT22;4482;54.332;10.118;2023-02-28T15:45:34;7.40;99.90
8892;DHT22;4482;54.332;10.118;2023-02-28T15:48:02;7.40;99.90
8892;DHT22;4482;54.332;10.118;2023-02-28T15:50:31;7.40;99.90
8892;DHT22;4482;54.332;10.118;2023-02-28T15:52:58;7.40;99.90
8892;DHT22;4482;54.332;10.118;2023-02-28T15:55:27;7.50;99.90
8892;DHT22;4482;54.332;10.118;2023-02-28T15:57:54;7.50;99.90
8892;DHT22;4482;54.332;10.118;2023-02-28T16:03:35;7.30;99.90
8892;DHT22;4482;54.332;10.118;2023-02-28T16:06:26;7.30;99.90
8892;DHT22;4482;54.332;10.118;2023-02-28T16:08:54;7.30;99.90
8892;DHT22;4482;54.332;10.118;2023-02-28T16:11:21;7.20;99.90
8892;DHT22;4482;54.332;10.118;2023-02-28T16:13:48;7.20;99.90
8892;DHT22;4482;54.332;10.118;2023-02-28T16:16:15;7.10;99.90
8892;DHT22;4482;54.332;10.118;2023-02-28T16:18:42;7.10;99.90
8892;DHT22;4482;54.332;10.118;2023-02-28T16:21:08;7.10;99.90
8892;DHT22;4482;54.332;10.118;2023-02-28T16:23:36;7.00;99.90
8892;DHT22;4482;54.332;10.118;2023-02-28T16:26:04;6.90;99.90
8892;DHT22;4482;54.332;10.118;2023-02-28T16:28:31;6.90;99.90
8892;DHT22;4482;54.332;10.118;2023-02-28T16:30:59;6.80;99.90
8892;DHT22;4482;54.332;10.118;2023-02-28T16:33:25;6.80;99.90
8892;DHT22;4482;54.332;10.118;2023-02-28T16:35:52;6.80;99.90
8892;DHT22;4482;54.332;10.118;2023-02-28T16:38:19;6.80;99.90
8892;DHT22;4482;54.332;10.118;2023-02-28T16:40:48;6.70;99.90
8892;DHT22;4482;54.332;10.118;2023-02-28T16:43:16;6.70;99.90
8892;DHT22;4482;54.332;10.118;2023-02-28T16:45:44;6.60;99.90
8892;DHT22;4482;54.332;10.118;2023-02-28T16:48:14;6.60;99.90
8892;DHT22;4482;54.332;10.118;2023-02-28T16:50:41;6.60;99.90
8892;DHT22;4482;54.332;10.118;2023-02-28T16:53:09;6.50;99.90